Time;durP1;ratioP1;P1;durP2;ratioP2;P2;SDS_P1;SDS_P2;PMS_P1;PMS_P2;Temp;Humidity;BMP_temperature;BMP_pressure;BME280_temperature;BME280_humidity;BME280_pressure;Samples;Min_cycle;Max_cycle;Signal;HPM_P1;HPM_P2
2023/03/08 00:01:34;;;;;;;21.80;15.80;;;;;;;1.50;75.91;98612.95;107934;1253;72729;-77
2023/03/08 00:04:03;;;;;;;19.80;14.00;;;;;;;1.51;76.15;98608.15;108015;1252;69504;-77
2023/03/08 00:06:31;;;;;;;21.10;14.30;;;;;;;1.62;76.01;98601.79;108426;1253;70986;-81
2023/03/08 00:09:06;;;;;;;24.70;15.70;;;;;;;1.64;75.79;98595.45;108334;1254;59106;-76
2023/03/08 00:11:34;;;;;;;26.00;17.10;;;;;;;1.62;75.95;98592.85;107809;1254;60434;-78
2023/03/08 00:14:03;;;;;;;27.40;17.90;;;;;;;1.60;76.03;98587.13;108817;1252;74408;-76
2023/03/08 00:16:31;;;;;;;30.40;18.60;;;;;;;1.56;76.03;98583.25;108839;1252;70096;-76
2023/03/08 00:18:59;;;;;;;31.50;18.90;;;;;;;1.54;76.01;98575.04;109014;1252;72514;-75
2023/03/08 00:21:28;;;;;;;30.70;18.10;;;;;;;1.63;75.95;98570.57;108241;1254;60461;-75
2023/03/08 00:23:59;;;;;;;29.50;19.10;;;;;;;1.72;75.69;98573.11;108054;1252;61011;-78
2023/03/08 00:26:27;;;;;;;38.10;20.90;;;;;;;1.70;75.60;98563.34;108863;1253;74116;-77
2023/03/08 00:28:55;;;;;;;30.80;19.30;;;;;;;1.69;75.66;98565.21;109030;1253;68751;-79
2023/03/08 00:31:27;;;;;;;34.50;20.10;;;;;;;1.68;75.70;98567.52;109053;1253;72751;-78
2023/03/08 00:33:55;;;;;;;31.10;20.20;;;;;;;1.68;75.58;98567.91;109202;1253;59148;-77
2023/03/08 00:36:24;;;;;;;33.20;20.40;;;;;;;1.67;75.52;98559.91;109369;1252;59196;-78
2023/03/08 00:38:53;;;;;;;29.80;19.50;;;;;;;1.77;75.40;98561.64;108932;1253;72348;-77
2023/03/08 00:41:21;;;;;;;32.60;20.40;;;;;;;1.87;75.16;98555.36;108142;1258;70062;-79
2023/03/08 00:43:52;;;;;;;28.80;17.50;;;;;;;1.86;75.14;98552.63;108294;1253;71575;-80
2023/03/08 00:46:21;;;;;;;33.60;19.70;;;;;;;1.84;75.26;98549.79;108154;1254;60466;-78
2023/03/08 00:48:53;;;;;;;24.90;17.00;;;;;;;1.83;75.16;98548.36;108319;1253;60289;-79
2023/03/08 00:51:22;;;;;;;24.10;16.80;;;;;;;1.81;75.27;98544.35;108096;1253;72663;-79
2023/03/08 00:53:52;;;;;;;25.50;17.40;;;;;;;1.80;75.30;98549.02;108039;1252;71323;-78
2023/03/08 00:56:21;;;;;;;22.00;15.90;;;;;;;1.81;75.38;98538.61;108354;1252;71694;-77
2023/03/08 00:58:52;;;;;;;21.40;16.00;;;;;;;1.93;75.15;98538.33;108061;1253;60368;-79
2023/03/08 01:01:20;;;;;;;25.80;17.80;;;;;;;1.98;74.96;98526.73;108098;1254;60837;-77
2023/03/08 01:03:50;;;;;;;24.40;16.70;;;;;;;1.97;74.89;98525.62;107352;1253;72428;-79
2023/03/08 01:06:19;;;;;;;26.90;18.80;;;;;;;1.94;74.82;98517.27;108319;1253;69895;-79
2023/03/08 01:08:48;;;;;;;28.50;19.30;;;;;;;1.93;74.67;98515.08;108757;1252;71650;-77
2023/03/08 01:11:22;;;;;;;30.20;20.50;;;;;;;1.92;74.88;98517.00;108325;1253;60300;-80
2023/03/08 01:13:51;;;;;;;;;;;;;;;1.91;74.82;98522.10;108260;1253;60448;-76
2023/03/08 01:16:21;;;;;;;24.80;16.80;;;;;;;2.01;74.71;98523.66;108024;1252;74651;-76
2023/03/08 01:18:49;;;;;;;25.20;18.60;;;;;;;2.10;74.44;98519.61;108012;1253;69561;-77
2023/03/08 01:21:20;;;;;;;23.80;18.50;;;;;;;2.10;74.43;98520.54;107620;1252;71741;-76
2023/03/08 01:23:48;;;;;;;28.20;18.90;;;;;;;2.07;74.31;98522.16;107063;1254;60387;-77
2023/03/08 01:26:18;;;;;;;27.80;18.80;;;;;;;2.06;74.44;98519.38;107875;1253;59142;-77
2023/03/08 01:28:46;;;;;;;25.40;19.00;;;;;;;2.03;74.42;98521.04;109165;1253;72643;-77
2023/03/08 01:31:21;;;;;;;26.80;19.50;;;;;;;2.00;74.35;98523.56;109078;1253;69935;-77
2023/03/08 01:33:54;;;;;;;22.10;16.80;;;;;;;1.98;74.44;98507.04;109037;1253;71307;-77
2023/03/08 01:36:23;;;;;;;22.00;17.30;;;;;;;2.08;74.22;98517.41;109092;1252;60096;-78
2023/03/08 01:38:55;;;;;;;;;;;;;;;2.12;73.92;98513.11;109001;1253;60299;-77
2023/03/08 01:41:29;;;;;;;28.60;19.70;;;;;;;2.08;73.99;98504.11;108147;1253;72241;-74
2023/03/08 01:44:02;;;;;;;28.00;19.10;;;;;;;2.02;74.27;98506.98;108591;1253;68915;-74
2023/03/08 01:46:34;;;;;;;27.80;19.80;;;;;;;1.97;74.44;98515.44;108522;1253;72770;-75
2023/03/08 01:49:28;;;;;;;26.10;19.50;;;;;;;1.93;74.56;98518.61;108335;1252;60949;-75
2023/03/08 01:52:03;;;;;;;25.20;17.60;;;;;;;1.97;74.63;98507.94;108612;1252;59394;-73
2023/03/08 01:54:46;;;;;;;26.50;17.80;;;;;;;2.08;74.53;98511.78;108972;1253;72800;-76
2023/03/08 01:57:35;;;;;;;23.20;17.30;;;;;;;2.06;74.50;98507.77;108683;1253;68580;-75
2023/03/08 02:00:17;;;;;;;26.80;19.30;;;;;;;2.01;74.83;98502.55;108358;1252;70792;-75
2023/03/08 02:02:51;;;;;;;27.70;18.30;;;;;;;1.96;74.86;98503.15;108554;1253;59119;-77
2023/03/08 02:05:19;;;;;;;21.20;16.30;;;;;;;1.94;74.97;98511.23;108190;1253;59151;-74
2023/03/08 02:07:52;;;;;;;25.50;18.20;;;;;;;1.91;75.14;98507.30;108167;1253;73619;-76
2023/03/08 02:10:23;;;;;;;25.30;17.50;;;;;;;2.00;75.07;98503.52;108128;1253;70699;-76
2023/03/08 02:12:57;;;;;;;;;;;;;;;2.05;75.02;98506.80;107891;1253;72633;-78
2023/03/08 02:15:25;;;;;;;26.40;17.90;;;;;;;2.02;75.04;98507.86;105878;1254;60487;-75
2023/03/08 02:17:56;;;;;;;29.20;21.30;;;;;;;1.97;75.43;98510.55;106836;1253;60630;-76
2023/03/08 02:20:33;;;;;;;28.00;19.40;;;;;;;1.93;75.31;98506.36;109456;1253;73762;-75
2023/03/08 02:23:19;;;;;;;24.80;18.00;;;;;;;1.89;75.61;98506.39;109189;1253;69565;-73
2023/03/08 02:25:55;;;;;;;24.90;17.10;;;;;;;1.93;75.70;98497.30;106808;1253;72154;-74
2023/03/08 02:28:24;;;;;;;24.70;17.40;;;;;;;2.05;75.51;98503.68;106059;1254;187881;-74
2023/03/08 02:32:54;;;;;;;22.30;17.30;;;;;;;2.05;75.57;98487.77;103136;1290;601158;-75
2023/03/08 02:35:22;;;;;;;25.50;19.50;;;;;;;1.99;75.86;98490.50;105178;1265;59365;-74
2023/03/08 02:37:50;;;;;;;26.10;19.10;;;;;;;1.96;75.70;98492.27;105379;1264;61449;-74
2023/03/08 02:40:18;;;;;;;26.60;18.00;;;;;;;1.94;75.86;98487.13;105026;1269;73328;-76
2023/03/08 02:42:47;;;;;;;21.40;15.90;;;;;;;1.94;75.89;98489.39;105383;1264;70838;-75
2023/03/08 02:45:15;;;;;;;24.80;16.90;;;;;;;2.04;75.87;98487.06;105505;1261;70584;-75
2023/03/08 02:47:44;;;;;;;28.00;17.80;;;;;;;2.05;75.82;98480.16;105354;1258;202745;-76
2023/03/08 02:50:13;;;;;;;28.20;18.50;;;;;;;2.00;75.75;98489.70;105516;1259;60298;-76
2023/03/08 02:52:42;;;;;;;28.80;19.10;;;;;;;1.96;75.99;98484.15;105712;1260;72477;-77
2023/03/08 02:55:10;;;;;;;26.50;18.20;;;;;;;1.92;76.05;98488.33;105899;1254;71474;-77
2023/03/08 02:57:39;;;;;;;26.20;16.30;;;;;;;1.92;75.87;98492.15;106058;1255;71868;-75
2023/03/08 03:00:10;;;;;;;24.20;18.00;;;;;;;2.03;75.85;98488.20;105894;1254;59842;-76
2023/03/08 03:02:39;;;;;;;24.70;18.60;;;;;;;2.04;75.77;98485.76;105639;1254;61019;-75
2023/03/08 03:05:11;;;;;;;23.60;15.80;;;;;;;2.02;75.75;98488.64;106007;1258;74243;-75
2023/03/08 03:07:41;;;;;;;28.10;19.00;;;;;;;1.98;75.95;98487.25;105764;1259;70269;-75
2023/03/08 03:10:14;;;;;;;25.90;18.30;;;;;;;1.95;76.08;98486.16;105947;1254;72617;-79
2023/03/08 03:12:45;;;;;;;27.00;17.80;;;;;;;1.92;76.16;98481.33;105985;1254;61150;-80
2023/03/08 03:15:16;;;;;;;25.20;17.30;;;;;;;2.00;75.94;98476.38;106359;1254;59697;-77
2023/03/08 03:17:48;;;;;;;23.10;16.50;;;;;;;2.04;75.92;98474.23;106655;1254;73081;-77
2023/03/08 03:20:17;;;;;;;28.10;18.40;;;;;;;2.00;76.06;98473.08;107314;1257;70831;-76
2023/03/08 03:22:46;;;;;;;26.80;18.00;;;;;;;1.97;76.06;98478.41;106078;1254;71672;-78
2023/03/08 03:25:14;;;;;;;26.30;18.30;;;;;;;1.95;76.13;98469.20;105939;1254;59728;-78
2023/03/08 03:27:44;;;;;;;24.90;16.90;;;;;;;1.92;76.30;98474.73;105893;1254;59750;-74
2023/03/08 03:30:13;;;;;;;23.90;17.10;;;;;;;1.96;76.19;98475.44;105923;1256;73649;-75
2023/03/08 03:32:41;;;;;;;24.10;17.40;;;;;;;2.05;75.91;98465.33;106185;1254;70507;-76
2023/03/08 03:35:14;;;;;;;24.10;17.90;;;;;;;2.05;75.97;98469.98;106037;1260;72959;-81
2023/03/08 03:37:43;;;;;;;28.50;18.20;;;;;;;2.00;75.90;98469.05;106062;1253;59767;-76
2023/03/08 03:40:12;;;;;;;28.70;18.40;;;;;;;1.97;76.07;98459.96;105774;1260;59945;-77
2023/03/08 03:42:43;;;;;;;28.00;18.20;;;;;;;1.93;75.99;98450.68;105763;1254;70543;-76
2023/03/08 03:45:13;;;;;;;23.40;17.00;;;;;;;1.92;76.11;98450.64;105987;1257;70287;-74
2023/03/08 03:47:42;;;;;;;24.10;16.80;;;;;;;1.99;76.22;98445.04;105824;1254;73845;-77
2023/03/08 03:50:11;;;;;;;24.30;17.60;;;;;;;2.03;76.09;98442.58;105649;1257;59756;-75
2023/03/08 03:52:52;;;;;;;24.40;18.30;;;;;;;1.98;76.21;98432.73;105683;1254;59620;-74
2023/03/08 03:55:21;;;;;;;24.20;17.40;;;;;;;1.93;76.16;98429.60;105974;1257;71845;-74
2023/03/08 03:57:51;;;;;;;27.20;18.80;;;;;;;1.92;76.17;98438.55;105762;1254;71738;-78
2023/03/08 04:00:40;;;;;;;25.70;17.40;;;;;;;1.92;76.19;98444.15;105958;1257;74132;-77
2023/03/08 04:03:15;;;;;;;22.30;16.80;;;;;;;2.01;76.08;98437.04;105701;1254;60303;-75
2023/03/08 04:05:44;;;;;;;26.50;18.10;;;;;;;2.03;76.13;98440.18;106023;1259;61156;-74
2023/03/08 04:08:16;;;;;;;25.40;18.30;;;;;;;1.99;76.16;98439.14;105968;1254;72899;-74
2023/03/08 04:10:47;;;;;;;26.70;18.50;;;;;;;1.96;76.37;98432.61;106516;1254;70623;-76
2023/03/08 04:13:15;;;;;;;24.50;18.10;;;;;;;1.92;76.39;98421.30;107564;1254;71420;-76
2023/03/08 04:15:44;;;;;;;23.10;16.80;;;;;;;1.89;76.46;98415.05;106400;1254;60894;-76
2023/03/08 04:18:14;;;;;;;24.50;16.80;;;;;;;1.98;76.48;98413.42;106019;1254;60588;-77
2023/03/08 04:20:44;;;;;;;24.90;17.90;;;;;;;2.03;76.35;98409.77;105856;1254;73390;-76
2023/03/08 04:23:13;;;;;;;26.20;18.30;;;;;;;2.00;76.30;98413.40;105920;1259;69993;-78
2023/03/08 04:25:46;;;;;;;29.40;20.00;;;;;;;1.95;76.52;98415.38;105990;1253;72899;-77
2023/03/08 04:28:15;;;;;;;30.40;19.10;;;;;;;1.91;76.54;98408.92;105963;1253;59653;-75
2023/03/08 04:30:43;;;;;;;30.60;19.40;;;;;;;1.88;76.66;98406.28;105920;1254;60234;-77
2023/03/08 04:33:15;;;;;;;29.20;18.80;;;;;;;1.91;76.71;98402.13;105917;1254;73541;-77
2023/03/08 04:35:48;;;;;;;28.10;18.30;;;;;;;1.99;76.51;98399.88;105851;1254;69561;-77
2023/03/08 04:38:20;;;;;;;29.50;20.00;;;;;;;1.95;76.37;98396.52;105854;1261;71494;-75
2023/03/08 04:41:10;;;;;;;27.80;19.30;;;;;;;1.91;76.56;98396.05;105878;1257;59605;-77
2023/03/08 04:43:57;;;;;;;30.80;20.70;;;;;;;1.86;76.69;98397.92;105799;1254;60338;-75
2023/03/08 04:46:32;;;;;;;31.70;19.10;;;;;;;1.82;76.78;98404.29;105970;1257;72193;-76
2023/03/08 04:49:02;;;;;;;28.00;18.50;;;;;;;1.87;76.81;98411.29;105874;1257;69350;-76
2023/03/08 04:51:34;;;;;;;26.00;18.90;;;;;;;1.95;76.46;98405.77;105752;1254;71410;-77
2023/03/08 04:54:06;;;;;;;29.90;19.80;;;;;;;1.94;76.32;98411.67;105840;1259;59635;-75
2023/03/08 04:56:36;;;;;;;27.90;18.80;;;;;;;1.90;76.47;98408.19;106183;1256;60389;-75
2023/03/08 04:59:09;;;;;;;29.40;20.60;;;;;;;1.86;76.47;98408.91;106539;1256;72586;-76
2023/03/08 05:01:38;;;;;;;28.60;19.00;;;;;;;1.84;76.63;98408.80;106839;1251;69928;-74
2023/03/08 05:04:10;;;;;;;28.30;18.90;;;;;;;1.94;76.24;98395.42;106714;1254;73583;-76
2023/03/08 05:06:41;;;;;;;27.40;18.80;;;;;;;2.02;76.22;98393.28;107881;1251;60617;-76
2023/03/08 05:09:10;;;;;;;27.70;19.80;;;;;;;2.02;76.19;98398.36;108380;1252;59157;-77
2023/03/08 05:11:39;;;;;;;25.90;19.30;;;;;;;2.02;75.76;98385.80;106168;1259;72048;-76
2023/03/08 05:14:08;;;;;;;26.20;19.20;;;;;;;2.02;75.77;98384.02;107455;1255;69504;-78
2023/03/08 05:16:38;;;;;;;29.00;20.20;;;;;;;2.01;75.77;98393.19;105993;1251;73928;-76
2023/03/08 05:19:06;;;;;;;26.20;18.00;;;;;;;2.01;75.83;98390.56;106496;1256;60170;-76
2023/03/08 05:21:40;;;;;;;27.20;18.70;;;;;;;2.13;75.72;98390.97;107551;1253;61685;-73
2023/03/08 05:24:09;;;;;;;25.30;19.10;;;;;;;2.19;75.50;98390.05;107865;1251;72356;-73
2023/03/08 05:26:40;;;;;;;26.00;19.20;;;;;;;2.17;75.36;98388.48;108383;1251;68623;-73
2023/03/08 05:29:10;;;;;;;28.60;21.10;;;;;;;2.16;75.32;98386.29;108584;1251;72659;-73
2023/03/08 05:31:38;;;;;;;29.30;20.30;;;;;;;2.17;75.47;98376.82;108026;1251;59600;-74
2023/03/08 05:34:09;;;;;;;25.20;18.30;;;;;;;2.18;75.58;98384.45;107881;1253;60316;-76
2023/03/08 05:36:40;;;;;;;25.50;16.90;;;;;;;2.25;75.60;98382.64;106357;1253;72307;-75
2023/03/08 05:39:09;;;;;;;26.60;18.10;;;;;;;2.38;75.23;98380.87;106269;1254;70271;-75
2023/03/08 05:41:50;;;;;;;29.20;20.10;;;;;;;2.40;74.94;98378.42;106553;1251;72787;-73
2023/03/08 05:44:23;;;;;;;31.40;19.30;;;;;;;2.39;75.12;98383.13;106185;1254;59724;-74
2023/03/08 05:46:53;;;;;;;27.40;20.10;;;;;;;2.36;75.10;98379.14;106049;1251;61169;-78
2023/03/08 05:49:25;;;;;;;27.30;20.40;;;;;;;2.33;75.30;98373.17;106295;1251;74084;-75
2023/03/08 05:51:56;;;;;;;26.90;18.20;;;;;;;2.31;75.19;98372.67;106638;1251;71508;-77
2023/03/08 05:54:25;;;;;;;25.60;17.80;;;;;;;2.40;74.96;98380.36;106083;1256;72898;-76
2023/03/08 05:56:55;;;;;;;28.40;18.90;;;;;;;2.45;74.85;98374.82;106092;1251;60598;-77
2023/03/08 05:59:26;;;;;;;27.40;19.00;;;;;;;2.41;74.94;98370.34;106543;1254;59490;-76
2023/03/08 06:01:58;;;;;;;27.60;18.90;;;;;;;2.36;75.21;98367.93;107455;1253;71221;-77
2023/03/08 06:04:47;;;;;;;27.10;18.20;;;;;;;2.35;75.20;98366.35;107179;1254;69114;-76
2023/03/08 06:07:19;;;;;;;26.80;18.20;;;;;;;2.36;75.33;98375.14;105997;1251;73963;-76
2023/03/08 06:09:57;;;;;;;26.70;18.90;;;;;;;2.46;75.30;98364.75;106021;1256;59759;-76
2023/03/08 06:12:28;;;;;;;25.60;18.90;;;;;;;2.47;75.19;98359.42;105829;1251;60207;-77
2023/03/08 06:15:01;;;;;;;30.60;20.20;;;;;;;2.43;75.33;98357.19;105958;1258;72150;-76
2023/03/08 06:17:40;;;;;;;31.40;20.70;;;;;;;2.38;75.41;98346.66;105976;1251;71400;-76
2023/03/08 06:20:15;;;;;;;28.40;19.40;;;;;;;2.36;75.81;98350.54;105993;1257;72411;-77
2023/03/08 06:22:45;;;;;;;28.10;19.90;;;;;;;2.46;75.62;98351.81;106049;1257;60235;-76
2023/03/08 06:25:14;;;;;;;26.10;18.40;;;;;;;2.51;75.56;98354.26;106204;1257;59519;-75
2023/03/08 06:27:43;;;;;;;27.00;19.30;;;;;;;2.50;75.47;98356.60;106197;1257;72807;-78
2023/03/08 06:30:21;;;;;;;28.70;18.60;;;;;;;2.50;75.50;98360.53;105861;1254;71505;-76
2023/03/08 06:32:49;;;;;;;29.50;17.80;;;;;;;2.51;75.49;98357.39;105880;1252;71859;-77
2023/03/08 06:35:17;;;;;;;27.40;18.50;;;;;;;2.60;75.21;98360.23;106001;1254;60732;-77
2023/03/08 06:37:50;;;;;;;26.70;19.40;;;;;;;2.70;75.15;98361.67;105902;1257;61518;-76
2023/03/08 06:40:19;;;;;;;30.30;19.80;;;;;;;2.71;75.21;98363.48;105904;1255;74193;-74
2023/03/08 06:42:51;;;;;;;26.80;18.90;;;;;;;2.74;75.14;98356.26;106065;1251;71549;-76
2023/03/08 06:45:20;;;;;;;27.00;19.80;;;;;;;2.77;74.99;98365.23;105995;1251;72144;-75
2023/03/08 06:47:49;;;;;;;28.70;18.80;;;;;;;2.81;74.71;98355.05;106019;1252;59563;-77
2023/03/08 06:50:18;;;;;;;27.80;20.20;;;;;;;2.96;74.59;98360.73;105972;1254;60614;-76
2023/03/08 06:52:47;;;;;;;29.70;19.20;;;;;;;3.09;74.36;98362.90;106605;1253;74174;-76
2023/03/08 06:55:17;;;;;;;25.60;18.30;;;;;;;3.15;74.03;98371.02;107654;1256;69077;-75
2023/03/08 06:57:46;;;;;;;30.00;20.10;;;;;;;3.20;74.01;98363.20;107811;1251;73951;-75
2023/03/08 07:00:15;;;;;;;25.10;19.20;;;;;;;3.26;73.89;98367.64;106675;1251;60352;-73
2023/03/08 07:02:44;;;;;;;33.60;20.50;;;;;;;3.31;73.50;98361.67;107524;1251;60376;-76
2023/03/08 07:05:14;;;;;;;29.30;19.20;;;;;;;3.43;73.26;98363.17;107805;1255;73085;-78
2023/03/08 07:07:46;;;;;;;30.60;20.40;;;;;;;3.56;72.73;98360.91;107597;1251;71094;-76
2023/03/08 07:10:18;;;;;;;30.90;19.90;;;;;;;3.56;72.68;98342.07;106132;1251;73087;-77
2023/03/08 07:12:50;;;;;;;30.10;19.40;;;;;;;3.62;72.47;98355.95;106260;1251;60552;-76
2023/03/08 07:15:20;;;;;;;26.70;20.10;;;;;;;3.61;72.30;98345.69;106253;1251;61321;-75
2023/03/08 07:17:54;;;;;;;30.80;20.90;;;;;;;3.64;72.29;98350.84;105927;1251;72934;-78
2023/03/08 07:20:23;;;;;;;31.50;19.80;;;;;;;3.67;72.31;98354.19;106023;1251;71244;-77
2023/03/08 07:22:54;;;;;;;27.40;18.20;;;;;;;3.77;72.26;98349.15;106069;1254;72939;-77
2023/03/08 07:25:22;;;;;;;30.00;21.00;;;;;;;3.93;71.85;98337.73;106042;1251;60457;-75
2023/03/08 07:27:59;;;;;;;26.00;18.90;;;;;;;3.99;71.53;98330.12;105952;1251;60768;-76
2023/03/08 07:30:28;;;;;;;32.10;20.50;;;;;;;4.00;71.57;98319.78;105920;1257;73787;-76
2023/03/08 07:32:57;;;;;;;30.30;22.00;;;;;;;4.05;71.68;98313.19;105890;1254;70604;-76
2023/03/08 07:35:29;;;;;;;32.80;20.60;;;;;;;4.09;71.47;98326.05;106002;1252;72836;-74
2023/03/08 07:37:58;;;;;;;29.00;19.70;;;;;;;4.11;71.14;98332.27;105932;1254;60389;-77
2023/03/08 07:40:26;;;;;;;29.70;20.20;;;;;;;4.14;71.25;98331.66;105909;1254;60447;-75
2023/03/08 07:42:56;;;;;;;30.90;20.80;;;;;;;4.17;70.92;98334.58;106059;1257;75045;-76
2023/03/08 07:45:44;;;;;;;27.50;20.10;;;;;;;4.26;70.71;98338.23;106582;1254;71264;-76
2023/03/08 07:48:14;;;;;;;28.70;19.90;;;;;;;4.36;70.51;98333.35;107005;1251;71310;-73
2023/03/08 07:50:43;;;;;;;26.20;19.10;;;;;;;4.39;70.56;98332.73;107457;1251;60423;-76
2023/03/08 07:53:15;;;;;;;29.50;20.10;;;;;;;4.42;70.47;98334.02;107231;1250;61063;-76
2023/03/08 07:55:49;;;;;;;27.30;21.10;;;;;;;4.44;70.44;98326.15;106278;1251;72583;-76
2023/03/08 07:58:17;;;;;;;27.30;19.50;;;;;;;4.53;70.50;98330.33;106503;1254;70949;-75
2023/03/08 08:00:46;;;;;;;29.20;21.70;;;;;;;4.61;70.22;98329.80;106117;1253;72857;-75
2023/03/08 08:03:15;;;;;;;31.70;21.50;;;;;;;4.69;70.07;98325.80;106257;1251;60397;-76
2023/03/08 08:05:43;;;;;;;30.30;22.40;;;;;;;4.77;69.61;98312.90;106424;1251;60552;-77
2023/03/08 08:08:12;;;;;;;31.90;21.70;;;;;;;4.82;69.72;98311.09;106467;1256;73330;-75
2023/03/08 08:10:43;;;;;;;30.30;20.10;;;;;;;4.90;69.51;98312.52;106111;1251;71251;-79
2023/03/08 08:13:16;;;;;;;26.90;18.40;;;;;;;5.09;69.17;98313.93;106182;1256;73732;-75
2023/03/08 08:15:45;;;;;;;31.50;21.30;;;;;;;5.25;68.63;98315.58;106317;1255;60530;-76
2023/03/08 08:18:14;;;;;;;30.80;19.30;;;;;;;5.33;67.47;98307.95;106200;1251;60463;-73
2023/03/08 08:20:43;;;;;;;29.30;21.70;;;;;;;5.40;67.53;98300.91;106006;1252;74141;-76
2023/03/08 08:23:12;;;;;;;30.90;20.30;;;;;;;5.48;67.61;98305.07;106016;1253;69354;-73
2023/03/08 08:25:45;;;;;;;27.00;18.80;;;;;;;5.60;67.21;98311.34;106088;1257;73010;-75
2023/03/08 08:28:14;;;;;;;29.00;20.30;;;;;;;5.65;66.79;98313.00;106201;1252;60568;-77
2023/03/08 08:30:43;;;;;;;26.90;19.70;;;;;;;5.72;66.49;98314.38;106074;1254;61455;-74
2023/03/08 08:33:11;;;;;;;24.30;18.60;;;;;;;5.75;66.19;98312.23;105957;1254;74023;-77
2023/03/08 08:35:39;;;;;;;26.80;19.60;;;;;;;5.77;65.84;98312.46;106018;1254;71697;-78
2023/03/08 08:38:11;;;;;;;25.70;18.60;;;;;;;5.75;65.67;98316.02;105980;1257;71767;-74
2023/03/08 08:40:39;;;;;;;29.60;20.60;;;;;;;5.70;65.76;98316.33;105914;1256;60520;-75
2023/03/08 08:43:11;;;;;;;30.90;21.90;;;;;;;5.67;66.06;98316.77;106683;1254;61207;-76
2023/03/08 08:45:47;;;;;;;27.30;19.90;;;;;;;5.65;66.18;98319.59;107737;1254;73441;-75
2023/03/08 08:48:16;;;;;;;34.30;21.00;;;;;;;5.61;65.86;98320.00;107035;1256;69259;-78
2023/03/08 08:50:44;;;;;;;27.10;18.10;;;;;;;5.58;65.57;98316.79;106511;1253;71632;-76
2023/03/08 08:53:13;;;;;;;32.10;20.10;;;;;;;5.55;65.63;98317.98;106659;1253;60488;-77
2023/03/08 08:55:41;;;;;;;34.40;22.20;;;;;;;5.56;65.62;98315.27;106078;1258;60860;-77
2023/03/08 08:58:13;;;;;;;29.00;20.40;;;;;;;5.62;65.86;98311.76;106537;1254;72835;-77
2023/03/08 09:00:42;;;;;;;25.40;17.00;;;;;;;5.72;65.86;98314.41;106291;1257;71558;-76
2023/03/08 09:03:10;;;;;;;38.90;22.20;;;;;;;5.81;65.19;98309.49;106277;1256;72333;-78
2023/03/08 09:05:41;;;;;;;28.70;18.70;;;;;;;5.89;65.20;98312.28;106282;1252;60427;-77
2023/03/08 09:08:10;;;;;;;27.00;18.60;;;;;;;5.96;64.81;98304.83;106295;1257;61309;-76
2023/03/08 09:10:39;;;;;;;25.20;18.70;;;;;;;6.02;64.75;98303.29;105961;1258;74821;-76
2023/03/08 09:13:09;;;;;;;28.60;20.00;;;;;;;6.07;64.56;98305.85;106023;1254;69736;-77
2023/03/08 09:15:38;;;;;;;33.20;20.80;;;;;;;6.16;64.56;98296.83;106200;1254;72802;-77
2023/03/08 09:18:06;;;;;;;25.80;18.50;;;;;;;6.26;64.54;98300.07;106048;1255;60440;-77
2023/03/08 09:20:36;;;;;;;26.10;17.30;;;;;;;6.35;64.23;98296.86;106119;1255;61052;-76
2023/03/08 09:23:05;;;;;;;25.30;18.60;;;;;;;6.40;63.68;98300.48;105998;1256;74559;-77
2023/03/08 09:25:34;;;;;;;30.70;20.10;;;;;;;6.43;64.02;98299.88;106023;1254;68127;-76
2023/03/08 09:28:05;;;;;;;26.90;17.50;;;;;;;6.45;64.26;98296.75;106030;1256;73891;-75
2023/03/08 09:30:33;;;;;;;30.70;18.80;;;;;;;6.47;63.65;98301.77;106016;1256;60514;-77
2023/03/08 09:33:03;;;;;;;29.70;19.70;;;;;;;6.48;63.88;98303.49;106108;1252;60444;-77
2023/03/08 09:35:32;;;;;;;26.10;19.30;;;;;;;6.45;64.10;98303.81;105991;1254;74754;-75
2023/03/08 09:38:00;;;;;;;30.00;18.90;;;;;;;6.43;64.86;98303.05;107493;1251;70186;-77
2023/03/08 09:40:29;;;;;;;30.20;19.00;;;;;;;6.41;64.99;98312.89;108988;1251;73099;-76
2023/03/08 09:42:58;;;;;;;28.20;19.00;;;;;;;6.37;64.91;98315.99;107517;1252;60424;-75
2023/03/08 09:45:28;;;;;;;26.20;18.20;;;;;;;6.35;65.14;98302.01;106180;1256;62195;-76
2023/03/08 09:48:09;;;;;;;31.20;20.30;;;;;;;6.35;65.24;98302.73;106187;1254;74889;-77
2023/03/08 09:50:56;;;;;;;33.10;19.50;;;;;;;6.38;65.55;98300.63;106223;1252;69963;-75
2023/03/08 09:53:27;;;;;;;27.00;17.40;;;;;;;6.41;64.95;98309.98;106202;1251;71707;-76
2023/03/08 09:56:35;;;;;;;39.10;27.40;;;;;;;6.42;64.57;98318.61;106189;1251;60517;-79
2023/03/08 09:59:19;;;;;;;27.80;18.70;;;;;;;6.44;64.95;98310.77;106537;1251;60421;-79
2023/03/08 10:02:32;;;;;;;23.90;16.40;;;;;;;6.47;64.47;98309.40;106104;1251;72651;-78
2023/03/08 10:05:23;;;;;;;31.20;20.70;;;;;;;6.47;64.69;98309.00;105979;1252;70619;-77
2023/03/08 10:08:10;;;;;;;27.10;18.60;;;;;;;6.46;65.35;98304.47;106307;1252;72601;-74
2023/03/08 10:10:45;;;;;;;22.90;16.10;;;;;;;6.44;65.96;98323.92;106214;1254;60539;-74
2023/03/08 10:13:37;;;;;;;26.40;18.80;;;;;;;6.40;66.63;98325.88;106246;1251;60530;-75
2023/03/08 10:16:08;;;;;;;25.70;18.10;;;;;;;6.28;67.87;98319.51;106313;1254;74802;-77
2023/03/08 10:18:58;;;;;;;25.30;17.00;;;;;;;6.15;69.76;98312.56;106120;1251;71519;-76
2023/03/08 10:21:27;;;;;;;23.90;15.20;;;;;;;6.07;70.49;98310.27;106101;1250;73913;-76
2023/03/08 10:23:59;;;;;;;21.40;15.60;;;;;;;6.09;70.46;98303.91;106221;1251;60519;-77
2023/03/08 10:26:27;;;;;;;20.70;15.80;;;;;;;6.06;70.90;98290.14;106139;1254;60536;-77
2023/03/08 10:28:56;;;;;;;20.50;15.50;;;;;;;6.04;71.64;98285.95;106146;1256;72711;-75
2023/03/08 10:31:27;;;;;;;20.50;14.40;;;;;;;6.02;71.61;98293.27;106480;1250;70478;-76
2023/03/08 10:34:03;;;;;;;24.00;16.80;;;;;;;6.01;71.86;98285.50;109121;1251;73216;-76
2023/03/08 10:36:33;;;;;;;23.10;15.70;;;;;;;6.08;71.74;98297.32;108044;1251;61199;-74
2023/03/08 10:39:07;;;;;;;23.50;17.40;;;;;;;6.10;70.94;98289.27;106306;1251;61664;-76
2023/03/08 10:41:40;;;;;;;21.20;15.70;;;;;;;6.04;71.36;98289.49;106382;1251;71874;-76
2023/03/08 10:44:15;;;;;;;17.70;14.20;;;;;;;5.93;71.80;98278.24;106274;1251;69596;-75
2023/03/08 10:46:46;;;;;;;21.20;14.50;;;;;;;5.81;72.41;98271.72;106304;1251;70852;-76
2023/03/08 10:49:18;;;;;;;16.90;13.20;;;;;;;5.73;73.35;98272.77;106250;1254;61324;-75
2023/03/08 10:51:59;;;;;;;20.10;14.40;;;;;;;5.77;73.33;98269.77;106257;1251;60414;-76
2023/03/08 10:54:28;;;;;;;21.10;15.20;;;;;;;5.70;73.92;98277.01;106125;1257;73422;-76
2023/03/08 10:57:01;;;;;;;22.10;16.10;;;;;;;5.60;75.31;98268.79;106228;1251;69222;-75
2023/03/08 10:59:33;;;;;;;19.60;13.70;;;;;;;5.53;76.45;98272.59;106337;1253;71345;-74
2023/03/08 11:02:22;;;;;;;21.60;14.60;;;;;;;5.60;76.53;98273.89;106424;1251;60634;-74
2023/03/08 11:04:51;;;;;;;22.90;15.90;;;;;;;5.59;77.23;98275.13;106465;1251;60430;-74
2023/03/08 11:07:23;;;;;;;31.80;18.70;;;;;;;5.54;77.15;98273.58;106371;1250;72814;-76
2023/03/08 11:10:05;;;;;;;;;;;;;;;5.53;77.51;98272.80;106511;1254;70568;-76
2023/03/08 11:12:34;;;;;;;23.40;16.70;;;;;;;5.56;77.51;98269.60;106176;1254;71437;-76
2023/03/08 11:15:15;;;;;;;20.90;13.70;;;;;;;5.49;77.46;98279.39;106171;1251;61372;-75
2023/03/08 11:18:24;;;;;;;19.30;12.70;;;;;;;5.36;77.90;98268.64;106088;1254;60517;-75
2023/03/08 11:20:55;;;;;;;18.90;13.30;;;;;;;5.32;78.65;98259.59;105830;1252;72746;-76
2023/03/08 11:23:31;;;;;;;20.40;16.20;;;;;;;5.30;79.51;98250.31;106105;1251;70698;-76
2023/03/08 11:26:15;;;;;;;22.30;15.20;;;;;;;5.24;80.62;98247.91;106036;1251;73157;-74
2023/03/08 11:29:25;;;;;;;20.70;14.40;;;;;;;5.19;80.59;98252.34;108036;1251;60384;-75
2023/03/08 11:32:12;;;;;;;18.60;14.20;;;;;;;5.27;80.85;98255.90;106988;1260;60445;-77
2023/03/08 11:34:59;;;;;;;20.40;15.40;;;;;;;5.24;80.65;98253.88;105471;1260;73137;-75
2023/03/08 11:37:51;;;;;;;20.90;14.50;;;;;;;5.19;80.65;98247.33;106017;1251;69698;-75
2023/03/08 11:40:25;;;;;;;18.50;13.20;;;;;;;5.28;79.96;98251.45;106084;1252;72646;-74
2023/03/08 11:42:57;;;;;;;18.30;13.90;;;;;;;5.29;79.99;98246.45;106096;1251;60525;-76
2023/03/08 11:45:34;;;;;;;19.90;13.70;;;;;;;5.43;80.60;98235.91;106171;1252;60472;-76